Time;durP1;ratioP1;P1;durP2;ratioP2;P2;SDS_P1;SDS_P2;PMS_P1;PMS_P2;Temp;Humidity;BMP_temperature;BMP_pressure;BME280_temperature;BME280_humidity;BME280_pressure;Samples;Min_cycle;Max_cycle;Signal;HPM_P1;HPM_P2
2023/01/05 00:01:49;;;;;;;9.55;3.63;;;;;;;;;;4954553;28;20217;-68
2023/01/05 00:04:15;;;;;;;22.33;4.70;;;;;;;;;;4954760;28;20305;-68
2023/01/05 00:06:40;;;;;;;20.05;4.75;;;;;;;;;;4955883;28;20551;-68
2023/01/05 00:09:06;;;;;;;14.85;4.22;;;;;;;;;;4955237;28;20221;-68
2023/01/05 00:22:40;;;;;;;8.18;3.00;;;;;;;;;;4916020;29;20215;-68
2023/01/05 00:25:08;;;;;;;17.70;3.88;;;;;;;;;;4958543;28;20210;-68
2023/01/05 00:27:33;;;;;;;19.92;5.68;;;;;;;;;;4945759;28;20218;-68
2023/01/05 00:29:58;;;;;;;19.60;4.50;;;;;;;;;;4939132;28;20215;-68
2023/01/05 00:32:24;;;;;;;18.88;4.70;;;;;;;;;;4925732;29;20278;-68
2023/01/05 00:34:53;;;;;;;16.77;4.90;;;;;;;;;;4940967;28;20278;-68
2023/01/05 00:37:18;;;;;;;21.33;5.75;;;;;;;;;;4924734;28;20321;-68
2023/01/05 00:39:44;;;;;;;16.42;4.22;;;;;;;;;;4918337;29;20227;-68
2023/01/05 00:42:09;;;;;;;17.67;4.55;;;;;;;;;;4932273;28;20273;-68
2023/01/05 00:44:34;;;;;;;17.60;4.43;;;;;;;;;;4939332;28;20219;-68
2023/01/05 00:46:59;;;;;;;20.52;5.18;;;;;;;;;;4944659;28;20207;-68
2023/01/05 00:49:25;;;;;;;19.48;4.82;;;;;;;;;;4937981;28;20220;-68
2023/01/05 00:51:50;;;;;;;20.48;4.97;;;;;;;;;;4936506;28;20601;-68
2023/01/05 00:54:15;;;;;;;19.95;4.45;;;;;;;;;;4924933;29;20218;-68
2023/01/05 00:56:41;;;;;;;22.05;5.68;;;;;;;;;;4926733;29;20295;-68
2023/01/05 00:59:06;;;;;;;17.55;4.50;;;;;;;;;;4925727;29;20223;-68
2023/01/05 01:01:31;;;;;;;18.55;4.75;;;;;;;;;;4919618;29;20682;-68
2023/01/05 01:03:56;;;;;;;21.73;4.90;;;;;;;;;;4936275;28;20225;-68
2023/01/05 01:06:22;;;;;;;18.17;4.70;;;;;;;;;;4928401;28;20221;-68
2023/01/05 01:08:47;;;;;;;18.70;4.80;;;;;;;;;;4924005;29;20239;-68
2023/01/05 01:11:15;;;;;;;17.83;4.30;;;;;;;;;;4925739;29;20223;-68
2023/01/05 01:13:40;;;;;;;19.20;4.15;;;;;;;;;;4926331;29;20678;-68
2023/01/05 01:16:06;;;;;;;17.90;4.97;;;;;;;;;;4924874;29;20273;-68
2023/01/05 01:18:32;;;;;;;18.40;4.30;;;;;;;;;;4926038;29;20227;-67
2023/01/05 01:20:57;;;;;;;17.13;3.90;;;;;;;;;;4944587;28;20576;-67
2023/01/05 01:23:23;;;;;;;16.88;4.43;;;;;;;;;;4939792;28;20210;-68
2023/01/05 01:25:48;;;;;;;18.73;4.60;;;;;;;;;;4936536;28;20285;-68
2023/01/05 01:28:13;;;;;;;17.55;4.60;;;;;;;;;;4936351;28;20245;-67
2023/01/05 01:30:38;;;;;;;19.55;5.03;;;;;;;;;;4928078;28;20221;-67
2023/01/05 01:33:04;;;;;;;16.08;4.75;;;;;;;;;;4925426;29;20278;-67
2023/01/05 01:35:29;;;;;;;19.35;5.25;;;;;;;;;;4953104;28;20706;-67
2023/01/05 01:37:54;;;;;;;19.13;4.85;;;;;;;;;;4944972;28;20585;-67
2023/01/05 01:40:20;;;;;;;15.60;4.55;;;;;;;;;;4944514;28;20226;-67
2023/01/05 01:42:45;;;;;;;19.95;5.10;;;;;;;;;;4947088;28;20303;-68
2023/01/05 01:45:17;;;;;;;19.08;4.93;;;;;;;;;;4965365;28;20249;-67
2023/01/05 01:47:50;;;;;;;15.25;4.72;;;;;;;;;;4972324;28;20682;-68
2023/01/05 01:50:18;;;;;;;19.08;4.70;;;;;;;;;;4977679;28;20673;-67
2023/01/05 01:52:43;;;;;;;22.20;5.28;;;;;;;;;;4972283;28;20216;-67
2023/01/05 01:55:09;;;;;;;20.35;5.55;;;;;;;;;;4973159;28;20205;-67
2023/01/05 01:57:34;;;;;;;17.10;4.07;;;;;;;;;;4971558;28;20669;-67
2023/01/05 01:59:59;;;;;;;19.40;4.63;;;;;;;;;;4973345;28;20214;-67
2023/01/05 02:02:25;;;;;;;18.17;4.20;;;;;;;;;;4971804;28;20224;-67
2023/01/05 02:04:50;;;;;;;20.63;4.70;;;;;;;;;;4971470;28;20206;-68
2023/01/05 02:07:15;;;;;;;19.80;4.80;;;;;;;;;;4976661;28;20206;-67
2023/01/05 02:09:41;;;;;;;21.75;4.45;;;;;;;;;;4976252;28;20221;-67
2023/01/05 02:12:11;;;;;;;17.42;4.30;;;;;;;;;;4956785;28;20612;-67
2023/01/05 02:14:40;;;;;;;19.63;4.80;;;;;;;;;;4972777;28;20298;-68
2023/01/05 02:17:17;;;;;;;19.08;5.10;;;;;;;;;;4972533;28;20294;-67
2023/01/05 02:19:43;;;;;;;27.63;6.05;;;;;;;;;;4957049;28;20706;-68
2023/01/05 02:22:20;;;;;;;20.23;5.13;;;;;;;;;;4957303;28;20305;-67
2023/01/05 02:25:00;;;;;;;20.27;5.40;;;;;;;;;;4952178;28;20233;-68
2023/01/05 02:27:27;;;;;;;20.30;4.75;;;;;;;;;;4948790;28;20214;-67
2023/01/05 02:30:02;;;;;;;20.30;4.70;;;;;;;;;;4939274;28;20218;-68
2023/01/05 02:32:28;;;;;;;18.70;4.60;;;;;;;;;;4957065;28;20214;-67
2023/01/05 02:34:58;;;;;;;20.23;4.72;;;;;;;;;;4962046;28;20233;-67
2023/01/05 02:37:32;;;;;;;17.90;4.63;;;;;;;;;;4965333;28;20245;-67
2023/01/05 02:39:59;;;;;;;16.95;4.57;;;;;;;;;;4965205;28;20218;-67
2023/01/05 02:42:25;;;;;;;17.92;4.32;;;;;;;;;;4964968;28;20205;-67
2023/01/05 02:44:50;;;;;;;17.67;4.18;;;;;;;;;;4965555;28;20221;-67
2023/01/05 02:47:24;;;;;;;19.70;4.45;;;;;;;;;;4966137;28;20205;-67
2023/01/05 02:49:51;;;;;;;20.20;4.45;;;;;;;;;;4953320;28;20564;-67
2023/01/05 02:52:16;;;;;;;18.13;4.70;;;;;;;;;;4938573;28;20278;-68
2023/01/05 02:54:45;;;;;;;17.13;4.60;;;;;;;;;;4937667;28;20210;-67
2023/01/05 02:57:13;;;;;;;21.95;5.03;;;;;;;;;;4942900;28;20367;-67
2023/01/05 02:59:40;;;;;;;19.15;4.65;;;;;;;;;;4965027;28;20290;-68
2023/01/05 03:02:08;;;;;;;16.85;3.83;;;;;;;;;;4965830;28;20216;-67
2023/01/05 03:04:38;;;;;;;16.75;4.03;;;;;;;;;;4966607;28;20334;-67
2023/01/05 03:07:05;;;;;;;16.73;4.53;;;;;;;;;;4951744;28;21221;-67
2023/01/05 03:09:35;;;;;;;17.23;4.82;;;;;;;;;;4947515;28;20226;-67
2023/01/05 03:14:52;;;;;;;17.90;4.10;;;;;;;;;;4956860;28;20221;-67
2023/01/05 03:17:20;;;;;;;18.10;4.45;;;;;;;;;;4956578;28;20218;-67
2023/01/05 03:19:45;;;;;;;19.67;4.47;;;;;;;;;;4960208;28;20309;-67
2023/01/05 03:35:57;;;;;;;19.10;4.97;;;;;;;;;;4973858;28;20663;-67
2023/01/05 03:38:24;;;;;;;15.65;4.25;;;;;;;;;;4975129;28;20732;-67
2023/01/05 03:40:50;;;;;;;18.08;4.38;;;;;;;;;;4974588;28;20241;-67
2023/01/05 03:43:16;;;;;;;18.35;4.50;;;;;;;;;;4974366;28;20218;-67
2023/01/05 03:45:42;;;;;;;19.48;4.90;;;;;;;;;;4975660;28;20261;-67
2023/01/05 03:48:07;;;;;;;17.95;4.35;;;;;;;;;;4975231;28;20213;-68
2023/01/05 03:50:33;;;;;;;19.63;4.63;;;;;;;;;;4986502;28;20225;-67
2023/01/05 03:52:58;;;;;;;21.33;4.85;;;;;;;;;;4976592;28;20237;-67
2023/01/05 03:55:24;;;;;;;18.33;4.35;;;;;;;;;;4975100;28;20214;-67
2023/01/05 03:57:49;;;;;;;17.92;4.78;;;;;;;;;;4974760;28;20250;-67
2023/01/05 04:00:14;;;;;;;18.05;4.82;;;;;;;;;;4974993;28;20300;-67
2023/01/05 04:02:40;;;;;;;17.05;4.22;;;;;;;;;;4975272;28;20221;-67
2023/01/05 04:05:05;;;;;;;15.43;4.30;;;;;;;;;;4974711;28;20245;-67
2023/01/05 04:07:30;;;;;;;17.60;4.78;;;;;;;;;;4957483;28;20674;-68
2023/01/05 04:09:56;;;;;;;16.85;4.50;;;;;;;;;;4956982;28;20210;-66
2023/01/05 04:12:21;;;;;;;18.20;4.32;;;;;;;;;;4945150;28;20730;-66
2023/01/05 04:14:46;;;;;;;18.98;4.55;;;;;;;;;;4946649;28;20206;-66
2023/01/05 04:17:12;;;;;;;18.60;4.55;;;;;;;;;;4945206;28;20211;-66
2023/01/05 04:19:37;;;;;;;19.40;5.03;;;;;;;;;;4944921;28;20262;-66
2023/01/05 04:22:02;;;;;;;17.48;4.03;;;;;;;;;;4938314;28;20321;-66
2023/01/05 04:24:27;;;;;;;16.40;3.97;;;;;;;;;;4937587;28;20267;-66
2023/01/05 04:26:53;;;;;;;18.63;4.47;;;;;;;;;;4939725;28;20329;-66
2023/01/05 04:29:18;;;;;;;16.98;3.83;;;;;;;;;;4944956;28;20800;-66
2023/01/05 04:31:43;;;;;;;16.20;4.50;;;;;;;;;;4945690;28;20712;-66
2023/01/05 04:34:10;;;;;;;14.95;4.10;;;;;;;;;;4942989;28;20282;-66
2023/01/05 04:36:35;;;;;;;17.83;4.28;;;;;;;;;;4927548;28;20839;-66
2023/01/05 04:39:00;;;;;;;16.10;4.30;;;;;;;;;;4925686;29;20227;-66
2023/01/05 04:41:25;;;;;;;17.92;4.32;;;;;;;;;;4927144;29;20215;-66
2023/01/05 04:43:51;;;;;;;15.65;4.60;;;;;;;;;;4920255;29;20266;-66
2023/01/05 04:46:16;;;;;;;14.98;4.18;;;;;;;;;;4917531;29;20281;-67
2023/01/05 04:48:41;;;;;;;14.32;4.20;;;;;;;;;;4919096;28;20664;-66
2023/01/05 04:51:07;;;;;;;18.25;4.10;;;;;;;;;;4924831;28;20254;-66
2023/01/05 04:53:32;;;;;;;17.73;4.00;;;;;;;;;;4925963;29;20207;-66
2023/01/05 04:55:57;;;;;;;19.02;4.75;;;;;;;;;;4926999;29;20261;-66
2023/01/05 04:58:23;;;;;;;19.00;4.80;;;;;;;;;;4925874;29;20695;-66
2023/01/05 05:00:49;;;;;;;18.65;3.97;;;;;;;;;;4925822;29;20704;-66
2023/01/05 05:03:14;;;;;;;19.48;4.38;;;;;;;;;;4925897;29;20578;-66
2023/01/05 05:05:40;;;;;;;15.32;4.20;;;;;;;;;;4922962;29;20263;-66
2023/01/05 05:08:05;;;;;;;13.82;4.10;;;;;;;;;;4917235;29;20219;-66
2023/01/05 05:10:30;;;;;;;16.98;4.15;;;;;;;;;;4918589;29;20235;-66
2023/01/05 05:12:56;;;;;;;16.98;4.57;;;;;;;;;;4941644;29;20690;-66
2023/01/05 05:15:21;;;;;;;16.48;4.13;;;;;;;;;;4953107;28;20301;-66
2023/01/05 05:17:47;;;;;;;18.05;4.20;;;;;;;;;;4954528;28;20221;-66
2023/01/05 05:20:12;;;;;;;20.58;4.53;;;;;;;;;;4954313;28;20214;-66
2023/01/05 05:22:37;;;;;;;17.80;4.15;;;;;;;;;;4953801;28;20253;-66
2023/01/05 05:25:03;;;;;;;18.05;4.45;;;;;;;;;;4953990;28;20210;-66
2023/01/05 05:27:28;;;;;;;17.42;4.22;;;;;;;;;;4953820;28;20214;-66
2023/01/05 05:29:53;;;;;;;19.15;4.65;;;;;;;;;;4954517;28;20653;-66
2023/01/05 05:32:19;;;;;;;19.70;4.30;;;;;;;;;;4953855;28;20637;-66
2023/01/05 05:34:44;;;;;;;20.48;4.63;;;;;;;;;;4953420;28;20237;-66
2023/01/05 05:37:09;;;;;;;17.77;4.47;;;;;;;;;;4953967;28;20214;-66
2023/01/05 05:39:35;;;;;;;21.80;4.47;;;;;;;;;;4953458;28;20237;-65
2023/01/05 05:42:00;;;;;;;19.63;4.85;;;;;;;;;;4926525;28;20278;-65
2023/01/05 05:44:25;;;;;;;16.27;4.07;;;;;;;;;;4926081;29;20578;-66
2023/01/05 05:46:51;;;;;;;20.52;4.63;;;;;;;;;;4944228;28;20241;-66
2023/01/05 05:49:16;;;;;;;19.15;4.78;;;;;;;;;;4936649;28;20218;-66
2023/01/05 05:51:41;;;;;;;16.35;4.35;;;;;;;;;;4925661;29;20687;-66
2023/01/05 05:54:06;;;;;;;14.00;4.32;;;;;;;;;;4925301;29;20242;-66
2023/01/05 05:56:32;;;;;;;18.70;4.55;;;;;;;;;;4924315;29;20291;-66
2023/01/05 05:58:57;;;;;;;19.25;4.40;;;;;;;;;;4936344;28;20281;-66
2023/01/05 06:01:22;;;;;;;16.83;4.13;;;;;;;;;;4936258;28;20214;-66
2023/01/05 06:03:48;;;;;;;18.33;3.80;;;;;;;;;;4936425;28;20251;-66
2023/01/05 06:06:13;;;;;;;21.42;4.72;;;;;;;;;;4936584;28;20573;-66
2023/01/05 06:08:38;;;;;;;17.42;4.07;;;;;;;;;;4929197;29;20210;-66
2023/01/05 06:11:04;;;;;;;18.27;4.75;;;;;;;;;;4931687;28;20223;-66
2023/01/05 06:13:29;;;;;;;18.80;4.60;;;;;;;;;;4925891;29;20314;-66
2023/01/05 06:15:54;;;;;;;20.17;4.30;;;;;;;;;;4925797;29;20211;-66
2023/01/05 06:18:19;;;;;;;20.23;4.53;;;;;;;;;;4924100;29;20581;-66
2023/01/05 06:20:45;;;;;;;16.80;4.38;;;;;;;;;;4920419;29;20234;-66
2023/01/05 06:23:10;;;;;;;18.00;4.53;;;;;;;;;;4917367;29;20305;-66
2023/01/05 06:25:36;;;;;;;18.83;4.53;;;;;;;;;;4917259;29;20930;-66
2023/01/05 06:28:01;;;;;;;15.93;4.18;;;;;;;;;;4921310;29;20215;-66
2023/01/05 06:30:27;;;;;;;17.73;4.90;;;;;;;;;;4925448;29;20290;-66
2023/01/05 06:32:52;;;;;;;18.13;4.03;;;;;;;;;;4942824;28;20221;-66
2023/01/05 06:35:17;;;;;;;19.73;4.63;;;;;;;;;;4943257;28;20238;-71
2023/01/05 06:37:42;;;;;;;19.30;5.07;;;;;;;;;;4943590;28;20448;-67
2023/01/05 06:40:10;;;;;;;22.15;5.50;;;;;;;;;;4943245;28;20221;-68
2023/01/05 06:42:37;;;;;;;20.30;4.82;;;;;;;;;;4922628;29;20777;-67
2023/01/05 06:45:02;;;;;;;18.30;4.77;;;;;;;;;;4934207;28;20438;-66
2023/01/05 06:47:28;;;;;;;21.30;4.90;;;;;;;;;;4935311;28;20214;-66
2023/01/05 06:49:53;;;;;;;21.80;5.40;;;;;;;;;;4928387;28;20797;-66
2023/01/05 06:52:18;;;;;;;17.77;5.13;;;;;;;;;;4924453;29;20508;-67
2023/01/05 06:54:43;;;;;;;19.38;4.53;;;;;;;;;;4928870;29;20342;-66
2023/01/05 06:57:10;;;;;;;20.98;7.43;;;;;;;;;;4927731;29;20698;-66
2023/01/05 06:59:35;;;;;;;22.38;10.32;;;;;;;;;;4927651;29;20730;-67
2023/01/05 07:02:00;;;;;;;23.00;8.95;;;;;;;;;;4944932;28;20226;-67
2023/01/05 07:04:26;;;;;;;16.63;4.80;;;;;;;;;;4946957;28;20597;-67
2023/01/05 07:06:51;;;;;;;15.52;4.97;;;;;;;;;;4926467;28;20613;-66
2023/01/05 07:09:16;;;;;;;17.50;4.97;;;;;;;;;;4930243;28;20254;-67
2023/01/05 07:11:42;;;;;;;19.60;5.78;;;;;;;;;;4921013;29;20430;-63
2023/01/05 07:14:07;;;;;;;22.15;5.88;;;;;;;;;;4926922;29;20246;-65
2023/01/05 07:16:32;;;;;;;16.88;5.50;;;;;;;;;;4928499;29;20208;-65
2023/01/05 07:18:58;;;;;;;19.08;5.63;;;;;;;;;;4927943;29;20707;-65
2023/01/05 07:21:23;;;;;;;18.08;4.72;;;;;;;;;;4926903;29;20573;-66
2023/01/05 07:23:48;;;;;;;16.15;4.13;;;;;;;;;;4928105;29;20995;-66
2023/01/05 07:26:14;;;;;;;19.55;4.78;;;;;;;;;;4927496;29;20207;-64
2023/01/05 07:28:39;;;;;;;17.77;4.50;;;;;;;;;;4922222;29;20388;-66
2023/01/05 07:31:06;;;;;;;21.90;4.90;;;;;;;;;;4919305;29;20561;-64
2023/01/05 07:33:31;;;;;;;16.73;4.30;;;;;;;;;;4919817;29;20548;-64
2023/01/05 07:35:59;;;;;;;18.90;4.78;;;;;;;;;;4924772;29;20322;-64
2023/01/05 07:38:24;;;;;;;19.40;5.22;;;;;;;;;;4927272;29;20227;-65
2023/01/05 07:40:50;;;;;;;16.10;4.80;;;;;;;;;;4927560;29;20211;-65
2023/01/05 07:43:15;;;;;;;19.40;5.28;;;;;;;;;;4926577;29;20211;-65
2023/01/05 07:45:40;;;;;;;19.08;5.07;;;;;;;;;;4927634;29;20703;-65
2023/01/05 07:48:06;;;;;;;18.17;5.30;;;;;;;;;;4926423;29;20248;-65
2023/01/05 07:50:31;;;;;;;18.45;5.05;;;;;;;;;;4924847;28;20219;-65
2023/01/05 07:52:57;;;;;;;20.60;4.80;;;;;;;;;;4919867;29;20219;-64
2023/01/05 07:55:22;;;;;;;18.77;4.70;;;;;;;;;;4921736;28;20671;-63
2023/01/05 07:57:48;;;;;;;17.50;4.50;;;;;;;;;;4922005;28;20660;-65
2023/01/05 08:00:13;;;;;;;18.35;5.25;;;;;;;;;;4928787;29;20215;-65
2023/01/05 08:02:39;;;;;;;20.20;4.93;;;;;;;;;;4942616;28;20693;-65
2023/01/05 08:05:04;;;;;;;20.77;4.25;;;;;;;;;;4955107;28;20576;-66
2023/01/05 08:07:30;;;;;;;22.48;4.72;;;;;;;;;;4955557;28;20211;-66
2023/01/05 08:13:58;;;;;;;21.95;5.63;;;;;;;;;;4943190;28;20633;-66
2023/01/05 08:15:24;;;;;;;19.88;4.07;;;;;;;;;;4948044;28;20234;-65
2023/01/05 08:17:49;;;;;;;21.05;5.53;;;;;;;;;;4954347;28;20226;-65
2023/01/05 08:20:15;;;;;;;18.30;4.57;;;;;;;;;;4954868;28;20559;-65
2023/01/05 08:22:40;;;;;;;20.35;5.15;;;;;;;;;;4930778;29;20704;-65
2023/01/05 08:25:05;;;;;;;19.55;4.72;;;;;;;;;;4954137;28;20218;-65
2023/01/05 08:27:31;;;;;;;17.35;5.13;;;;;;;;;;4945657;28;20203;-65
2023/01/05 08:29:56;;;;;;;20.70;5.03;;;;;;;;;;4928815;29;20222;-64
2023/01/05 08:32:22;;;;;;;20.95;5.03;;;;;;;;;;4954121;28;20211;-65
2023/01/05 08:34:47;;;;;;;19.88;4.93;;;;;;;;;;4940275;28;20710;-65
2023/01/05 08:37:12;;;;;;;20.40;4.45;;;;;;;;;;4935784;29;20226;-65
2023/01/05 08:39:38;;;;;;;19.88;4.28;;;;;;;;;;4935346;29;20683;-65
2023/01/05 08:42:03;;;;;;;17.40;4.25;;;;;;;;;;4950156;28;20302;-66
2023/01/05 08:44:28;;;;;;;19.58;4.90;;;;;;;;;;4951979;28;20215;-66
2023/01/05 08:46:53;;;;;;;19.02;4.50;;;;;;;;;;4955190;28;20333;-65
2023/01/05 08:49:19;;;;;;;19.77;5.07;;;;;;;;;;4954428;28;20587;-65
2023/01/05 08:51:44;;;;;;;17.95;4.57;;;;;;;;;;4953952;28;20210;-67
2023/01/05 08:54:09;;;;;;;16.80;4.47;;;;;;;;;;4954513;28;20215;-65
2023/01/05 08:56:35;;;;;;;16.77;4.53;;;;;;;;;;4955093;28;20577;-65
2023/01/05 08:59:00;;;;;;;18.90;4.15;;;;;;;;;;4953588;28;20226;-65
2023/01/05 09:01:25;;;;;;;22.55;3.97;;;;;;;;;;4954028;28;20690;-65
2023/01/05 09:03:51;;;;;;;19.60;4.70;;;;;;;;;;4954287;28;20221;-65
2023/01/05 09:06:16;;;;;;;14.95;3.90;;;;;;;;;;4952767;28;20242;-65
2023/01/05 09:08:41;;;;;;;15.57;4.30;;;;;;;;;;4954762;28;20649;-65
2023/01/05 09:11:09;;;;;;;16.85;4.45;;;;;;;;;;4952162;28;20306;-65
2023/01/05 09:13:34;;;;;;;17.90;4.80;;;;;;;;;;4953351;28;20210;-65
2023/01/05 09:16:04;;;;;;;17.55;4.55;;;;;;;;;;4953895;28;20719;-66
2023/01/05 09:18:29;;;;;;;21.85;4.47;;;;;;;;;;4953793;28;20226;-66
2023/01/05 09:20:54;;;;;;;17.33;4.35;;;;;;;;;;4953711;28;20263;-65
2023/01/05 09:23:20;;;;;;;17.38;4.05;;;;;;;;;;4953793;28;20277;-65
2023/01/05 09:25:45;;;;;;;19.77;5.13;;;;;;;;;;4954411;28;20210;-65
2023/01/05 09:28:10;;;;;;;15.75;4.10;;;;;;;;;;4953367;28;20214;-65
2023/01/05 09:30:36;;;;;;;15.55;4.30;;;;;;;;;;4954067;28;20574;-65
2023/01/05 09:33:01;;;;;;;19.33;5.10;;;;;;;;;;4953943;28;20709;-65
2023/01/05 09:35:26;;;;;;;15.88;4.25;;;;;;;;;;4953512;28;20597;-65
2023/01/05 09:37:51;;;;;;;17.73;4.80;;;;;;;;;;4954118;28;20210;-65
2023/01/05 09:40:17;;;;;;;20.05;7.10;;;;;;;;;;4953727;28;20242;-66
2023/01/05 09:42:42;;;;;;;20.88;8.02;;;;;;;;;;4953203;28;20214;-66
2023/01/05 09:45:09;;;;;;;21.40;9.00;;;;;;;;;;4953483;28;20554;-66
2023/01/05 09:47:36;;;;;;;20.42;5.65;;;;;;;;;;4937288;29;20216;-66
2023/01/05 09:50:01;;;;;;;19.15;4.60;;;;;;;;;;4953332;28;20575;-65
2023/01/05 09:52:27;;;;;;;16.73;4.10;;;;;;;;;;4953961;28;20202;-66
2023/01/05 09:54:52;;;;;;;20.70;5.40;;;;;;;;;;4936267;29;20217;-66
2023/01/05 09:57:19;;;;;;;17.45;4.63;;;;;;;;;;4951808;28;20222;-66
2023/01/05 09:59:46;;;;;;;18.67;4.50;;;;;;;;;;4953640;28;20226;-66
2023/01/05 10:02:15;;;;;;;13.25;4.28;;;;;;;;;;4935464;28;20674;-66
2023/01/05 10:04:41;;;;;;;17.58;4.50;;;;;;;;;;4954306;28;20221;-66
2023/01/05 10:07:14;;;;;;;19.08;4.43;;;;;;;;;;4953328;28;20214;-66
2023/01/05 10:09:39;;;;;;;18.45;4.70;;;;;;;;;;4936141;29;20214;-66
2023/01/05 10:14:55;;;;;;;16.60;4.40;;;;;;;;;;4951297;28;20229;-66
2023/01/05 10:17:21;;;;;;;18.25;4.22;;;;;;;;;;4951988;28;20218;-69
2023/01/05 10:19:46;;;;;;;16.40;4.47;;;;;;;;;;4936507;29;20273;-69
2023/01/05 10:22:12;;;;;;;21.85;4.70;;;;;;;;;;4953221;28;20224;-68
2023/01/05 10:24:38;;;;;;;17.90;4.78;;;;;;;;;;4953072;28;20574;-68
2023/01/05 10:27:03;;;;;;;18.77;5.00;;;;;;;;;;4954931;28;20214;-68
2023/01/05 10:29:31;;;;;;;20.15;4.88;;;;;;;;;;4957405;28;20226;-68
2023/01/05 10:31:59;;;;;;;19.77;4.60;;;;;;;;;;4939723;29;20215;-68
2023/01/05 10:34:36;;;;;;;17.48;4.75;;;;;;;;;;4939859;28;20226;-68
2023/01/05 10:37:20;;;;;;;17.77;4.15;;;;;;;;;;4956337;28;20226;-68
2023/01/05 10:39:55;;;;;;;21.13;4.95;;;;;;;;;;4957447;28;20225;-68
2023/01/05 10:42:26;;;;;;;16.23;4.65;;;;;;;;;;4956838;28;20218;-69
2023/01/05 10:44:55;;;;;;;18.58;4.53;;;;;;;;;;4956239;28;20215;-69
2023/01/05 10:47:21;;;;;;;16.63;4.57;;;;;;;;;;4939741;28;20582;-68
2023/01/05 10:49:46;;;;;;;17.23;4.55;;;;;;;;;;4940202;29;20206;-69
2023/01/05 10:52:13;;;;;;;18.77;4.95;;;;;;;;;;4955914;28;20242;-68
2023/01/05 10:54:39;;;;;;;19.13;4.53;;;;;;;;;;4957205;28;20212;-68
2023/01/05 10:57:22;;;;;;;21.90;4.90;;;;;;;;;;4956862;28;20217;-68
2023/01/05 10:59:53;;;;;;;18.73;4.28;;;;;;;;;;4955880;28;20245;-69
2023/01/05 11:02:18;;;;;;;20.35;5.20;;;;;;;;;;4938885;28;20563;-68
2023/01/05 11:04:45;;;;;;;16.58;4.53;;;;;;;;;;4957146;28;20218;-68
2023/01/05 11:07:11;;;;;;;17.10;5.22;;;;;;;;;;4940673;28;20867;-68
2023/01/05 11:09:38;;;;;;;24.05;12.30;;;;;;;;;;4950525;28;20333;-65
2023/01/05 11:12:04;;;;;;;16.98;4.95;;;;;;;;;;4947972;28;20557;-66
2023/01/05 11:14:31;;;;;;;18.83;5.75;;;;;;;;;;4955473;28;20211;-66
2023/01/05 11:17:01;;;;;;;18.13;4.40;;;;;;;;;;4955944;28;20218;-66
2023/01/05 11:19:30;;;;;;;16.85;4.45;;;;;;;;;;4938764;29;20254;-66
2023/01/05 11:21:55;;;;;;;17.10;4.47;;;;;;;;;;4956648;28;20269;-66
2023/01/05 11:24:23;;;;;;;15.52;4.50;;;;;;;;;;4956163;28;20214;-65
2023/01/05 11:26:49;;;;;;;16.58;5.07;;;;;;;;;;4955915;28;20305;-65
2023/01/05 11:29:15;;;;;;;17.17;5.15;;;;;;;;;;4955917;28;20805;-65
2023/01/05 11:31:43;;;;;;;18.95;4.20;;;;;;;;;;4956575;28;20218;-65
2023/01/05 11:34:15;;;;;;;16.33;4.47;;;;;;;;;;4937851;28;20206;-66
2023/01/05 11:36:40;;;;;;;20.65;4.55;;;;;;;;;;4956539;28;20297;-65
2023/01/05 11:39:06;;;;;;;19.77;4.90;;;;;;;;;;4955574;28;20313;-66
2023/01/05 11:41:31;;;;;;;18.13;4.78;;;;;;;;;;4938283;29;20329;-68
2023/01/05 11:43:59;;;;;;;19.13;4.75;;;;;;;;;;4955959;28;20665;-65
2023/01/05 11:46:25;;;;;;;18.45;4.55;;;;;;;;;;4955850;28;20348;-65
2023/01/05 11:48:52;;;;;;;17.38;4.30;;;;;;;;;;4938467;29;20293;-66
2023/01/05 11:51:38;;;;;;;19.55;4.97;;;;;;;;;;4935133;28;20214;-66
2023/01/05 11:54:03;;;;;;;19.90;4.53;;;;;;;;;;4955478;28;20206;-66
2023/01/05 11:56:29;;;;;;;19.92;4.60;;;;;;;;;;4931832;29;20215;-65
2023/01/05 11:58:55;;;;;;;20.48;4.60;;;;;;;;;;4930095;29;20219;-66
2023/01/05 12:01:26;;;;;;;19.65;4.82;;;;;;;;;;4953365;28;20678;-66
2023/01/05 12:03:56;;;;;;;19.70;4.43;;;;;;;;;;4938683;29;20681;-65
2023/01/05 12:06:28;;;;;;;18.40;5.05;;;;;;;;;;4929712;29;20215;-65
2023/01/05 12:08:57;;;;;;;19.45;4.53;;;;;;;;;;4939176;29;20218;-65
2023/01/05 12:11:22;;;;;;;25.60;9.50;;;;;;;;;;4937286;28;20213;-66
2023/01/05 12:13:51;;;;;;;17.48;5.15;;;;;;;;;;4937874;29;20570;-65
2023/01/05 12:16:20;;;;;;;17.20;4.93;;;;;;;;;;4940801;28;20774;-65
2023/01/05 12:18:46;;;;;;;19.17;5.05;;;;;;;;;;4936235;29;20293;-65
2023/01/05 12:21:16;;;;;;;23.55;5.05;;;;;;;;;;4936076;29;20219;-66
2023/01/05 12:23:46;;;;;;;18.73;4.78;;;;;;;;;;4923387;29;20221;-65
2023/01/05 12:26:17;;;;;;;23.30;6.03;;;;;;;;;;4952522;28;20217;-66
2023/01/05 12:28:44;;;;;;;20.63;5.40;;;;;;;;;;4955214;28;20671;-66
2023/01/05 12:31:21;;;;;;;17.05;4.80;;;;;;;;;;4954130;28;20281;-66
2023/01/05 12:34:01;;;;;;;16.45;4.88;;;;;;;;;;4938277;29;20576;-65
2023/01/05 12:36:30;;;;;;;22.42;5.70;;;;;;;;;;4937334;29;20222;-65
2023/01/05 12:38:59;;;;;;;19.90;5.30;;;;;;;;;;4955399;28;20729;-65
2023/01/05 12:41:30;;;;;;;18.92;5.40;;;;;;;;;;4954588;28;20213;-67
2023/01/05 12:44:00;;;;;;;21.20;5.68;;;;;;;;;;4937161;29;20496;-66
2023/01/05 12:46:26;;;;;;;19.25;5.20;;;;;;;;;;4937793;29;20333;-66
2023/01/05 12:48:54;;;;;;;21.58;5.25;;;;;;;;;;4954201;28;20252;-66
2023/01/05 12:51:33;;;;;;;21.40;5.28;;;;;;;;;;4953714;28;20298;-66
2023/01/05 12:54:06;;;;;;;23.42;5.03;;;;;;;;;;4952299;28;20210;-66
2023/01/05 12:56:40;;;;;;;22.27;5.50;;;;;;;;;;4936456;29;20561;-66
2023/01/05 12:59:11;;;;;;;20.13;4.90;;;;;;;;;;4953748;28;20226;-66
2023/01/05 13:01:40;;;;;;;18.35;4.80;;;;;;;;;;4955085;28;20221;-66
2023/01/05 13:04:10;;;;;;;17.55;4.90;;;;;;;;;;4954361;28;20242;-66
2023/01/05 13:06:36;;;;;;;19.02;4.82;;;;;;;;;;4943289;28;20298;-66
2023/01/05 13:09:03;;;;;;;14.52;4.22;;;;;;;;;;4917670;29;20823;-65
2023/01/05 13:11:30;;;;;;;20.85;5.20;;;;;;;;;;4938245;29;20214;-65
2023/01/05 13:14:19;;;;;;;16.27;4.70;;;;;;;;;;4935923;29;20206;-66
2023/01/05 13:16:47;;;;;;;19.48;4.93;;;;;;;;;;4953889;28;20230;-65
2023/01/05 13:19:17;;;;;;;18.48;4.85;;;;;;;;;;4936151;28;20226;-65
2023/01/05 13:21:43;;;;;;;16.20;4.57;;;;;;;;;;4954592;28;20207;-65
2023/01/05 13:24:10;;;;;;;20.13;4.70;;;;;;;;;;4953905;28;20297;-65
2023/01/05 13:26:35;;;;;;;17.33;4.78;;;;;;;;;;4936663;29;20215;-65
2023/01/05 13:29:00;;;;;;;16.90;4.93;;;;;;;;;;4954071;28;20206;-65
2023/01/05 13:31:33;;;;;;;19.15;4.78;;;;;;;;;;4937250;29;20214;-65
2023/01/05 13:34:03;;;;;;;18.60;4.88;;;;;;;;;;4936637;28;20217;-65
2023/01/05 13:36:36;;;;;;;18.02;4.65;;;;;;;;;;4936970;29;20708;-65
2023/01/05 13:39:17;;;;;;;15.60;4.20;;;;;;;;;;4936943;28;20219;-65
2023/01/05 13:41:42;;;;;;;17.10;4.53;;;;;;;;;;4953473;28;20222;-65
2023/01/05 13:44:26;;;;;;;17.42;4.43;;;;;;;;;;4953595;28;20241;-65
2023/01/05 13:47:01;;;;;;;17.85;4.32;;;;;;;;;;4953590;28;20210;-65
2023/01/05 13:49:42;;;;;;;17.02;4.50;;;;;;;;;;4954184;28;20567;-65
2023/01/05 13:52:19;;;;;;;19.70;5.28;;;;;;;;;;4942230;28;20215;-66
2023/01/05 13:54:45;;;;;;;20.33;6.00;;;;;;;;;;4934357;29;20221;-65
2023/01/05 13:57:15;;;;;;;21.13;7.07;;;;;;;;;;4934230;29;20226;-65
2023/01/05 13:59:41;;;;;;;23.80;6.55;;;;;;;;;;4935125;29;20231;-65
2023/01/05 14:02:24;;;;;;;25.77;7.95;;;;;;;;;;4935639;29;20225;-65
2023/01/05 14:04:50;;;;;;;21.70;5.05;;;;;;;;;;4938980;29;20701;-65
2023/01/05 14:07:15;;;;;;;20.00;5.35;;;;;;;;;;4953814;28;20206;-65
2023/01/05 14:09:43;;;;;;;17.45;5.28;;;;;;;;;;4940300;29;20218;-65
2023/01/05 14:12:09;;;;;;;22.42;4.97;;;;;;;;;;4956223;28;20207;-65
2023/01/05 14:14:53;;;;;;;17.42;4.97;;;;;;;;;;4938987;28;20586;-65
2023/01/05 14:17:37;;;;;;;22.02;5.30;;;;;;;;;;4938065;28;20234;-65
2023/01/05 14:20:02;;;;;;;21.20;7.03;;;;;;;;;;4938784;28;20229;-65
2023/01/05 14:22:33;;;;;;;18.48;5.78;;;;;;;;;;4936733;29;20215;-65
2023/01/05 14:25:18;;;;;;;18.08;6.00;;;;;;;;;;4938919;28;20214;-65
2023/01/05 14:28:08;;;;;;;17.35;5.03;;;;;;;;;;4947615;28;20689;-65
2023/01/05 14:30:33;;;;;;;19.33;5.32;;;;;;;;;;4939841;29;20237;-65
2023/01/05 14:33:02;;;;;;;21.13;5.72;;;;;;;;;;4957521;29;20635;-65
2023/01/05 14:35:29;;;;;;;20.20;5.60;;;;;;;;;;4962796;28;20618;-65
2023/01/05 14:37:56;;;;;;;16.48;5.20;;;;;;;;;;4990639;28;20212;-65
2023/01/05 14:40:40;;;;;;;18.83;5.22;;;;;;;;;;4993514;28;20225;-64
2023/01/05 14:43:07;;;;;;;19.92;5.40;;;;;;;;;;4973902;28;20268;-64
2023/01/05 14:45:34;;;;;;;17.70;5.28;;;;;;;;;;4976715;28;20289;-64
2023/01/05 14:48:02;;;;;;;24.02;6.13;;;;;;;;;;4974785;28;20206;-64
2023/01/05 14:50:28;;;;;;;18.05;4.90;;;;;;;;;;4975783;28;20221;-64
2023/01/05 14:52:55;;;;;;;18.80;4.57;;;;;;;;;;4975463;28;20218;-64
2023/01/05 14:55:27;;;;;;;21.20;5.90;;;;;;;;;;4975079;28;20233;-64
2023/01/05 14:57:53;;;;;;;21.25;5.22;;;;;;;;;;4960267;28;20234;-64
2023/01/05 15:00:29;;;;;;;18.33;5.13;;;;;;;;;;4956442;28;20226;-64
2023/01/05 15:02:57;;;;;;;21.52;6.35;;;;;;;;;;4965078;28;20570;-64
2023/01/05 15:05:23;;;;;;;20.02;5.35;;;;;;;;;;4968278;28;20214;-64